createdAt,value
2023-10-20T00:01:59.587Z,7.40
2023-10-20T00:04:29.111Z,7.35
2023-10-20T00:06:57.444Z,7.36
2023-10-20T00:09:26.711Z,7.35
2023-10-20T00:11:54.330Z,7.30
2023-10-20T00:14:22.189Z,7.29
2023-10-20T00:16:49.922Z,7.29
2023-10-20T00:19:19.717Z,7.27
2023-10-20T00:21:47.352Z,7.29
2023-10-20T00:24:14.976Z,7.30
2023-10-20T00:26:43.936Z,7.30
2023-10-20T00:29:11.593Z,7.33
2023-10-20T00:31:39.700Z,7.35
2023-10-20T00:34:07.406Z,7.32
2023-10-20T00:36:35.173Z,7.31
2023-10-20T00:39:03.751Z,7.31
2023-10-20T00:41:32.207Z,7.31
2023-10-20T00:44:01.224Z,7.30
2023-10-20T00:46:30.101Z,7.31
2023-10-20T00:48:58.884Z,7.31
2023-10-20T00:51:26.667Z,7.32
2023-10-20T00:53:54.687Z,7.38
2023-10-20T00:56:22.931Z,7.34
2023-10-20T00:58:50.727Z,7.37
2023-10-20T01:01:19.681Z,7.34
2023-10-20T01:03:47.485Z,7.32
2023-10-20T01:06:15.176Z,7.32
2023-10-20T01:08:43.121Z,7.31
2023-10-20T01:11:10.841Z,7.32
2023-10-20T01:13:38.633Z,7.34
2023-10-20T01:16:06.836Z,7.33
2023-10-20T01:18:35.847Z,7.34
2023-10-20T01:21:03.499Z,7.32
2023-10-20T01:23:31.225Z,7.30
2023-10-20T01:26:00.250Z,7.31
2023-10-20T01:28:27.862Z,7.32
2023-10-20T01:30:55.477Z,7.33
2023-10-20T01:33:23.204Z,7.34
2023-10-20T01:35:50.860Z,7.35
2023-10-20T01:38:18.634Z,7.34
2023-10-20T01:40:46.754Z,7.36
2023-10-20T01:43:15.714Z,7.38
2023-10-20T01:45:43.298Z,7.36
2023-10-20T01:48:10.895Z,7.40
2023-10-20T01:50:38.870Z,7.34
2023-10-20T01:53:06.652Z,7.31
2023-10-20T01:55:35.255Z,7.30
2023-10-20T01:58:03.187Z,7.30
2023-10-20T02:00:32.240Z,7.23
2023-10-20T02:03:00.034Z,7.25
2023-10-20T02:05:27.821Z,7.22
2023-10-20T02:07:55.495Z,7.20
2023-10-20T02:10:23.064Z,7.18
2023-10-20T02:12:50.647Z,7.17
2023-10-20T02:15:18.972Z,7.11
2023-10-20T02:17:47.981Z,7.09
2023-10-20T02:20:16.888Z,7.06
2023-10-20T02:22:44.490Z,7.09
2023-10-20T02:25:12.319Z,7.07
2023-10-20T02:27:43.435Z,7.10
2023-10-20T02:30:13.601Z,7.10
2023-10-20T02:32:41.470Z,7.11
2023-10-20T02:35:11.223Z,7.09
2023-10-20T02:37:39.135Z,7.09
2023-10-20T02:40:07.967Z,7.09
2023-10-20T02:42:36.118Z,7.05
2023-10-20T02:45:10.299Z,7.05
2023-10-20T02:47:38.080Z,7.04
2023-10-20T02:50:07.841Z,7.02
2023-10-20T02:52:36.944Z,7.00
2023-10-20T02:55:04.904Z,7.00
2023-10-20T02:57:32.540Z,7.00
2023-10-20T03:00:00.112Z,7.00
2023-10-20T03:02:28.897Z,7.02
2023-10-20T03:04:58.329Z,7.01
2023-10-20T03:07:28.430Z,6.99
2023-10-20T03:09:58.203Z,6.99
2023-10-20T03:12:25.965Z,6.96
2023-10-20T03:14:53.595Z,6.89
2023-10-20T03:17:21.263Z,6.89
2023-10-20T03:19:49.534Z,6.88
2023-10-20T03:22:17.814Z,6.87
2023-10-20T03:24:46.554Z,6.89
2023-10-20T03:27:15.730Z,6.90
2023-10-20T03:29:44.136Z,6.91
2023-10-20T03:32:11.859Z,6.89
2023-10-20T03:34:39.628Z,6.89
2023-10-20T03:37:07.209Z,6.90
2023-10-20T03:39:35.727Z,6.91
2023-10-20T03:42:04.056Z,6.95
2023-10-20T03:44:34.492Z,6.96
2023-10-20T03:47:02.224Z,6.96
2023-10-20T03:49:34.904Z,6.96
2023-10-20T03:52:02.669Z,6.95
2023-10-20T03:54:32.738Z,6.91
2023-10-20T03:57:00.539Z,6.92
2023-10-20T03:59:28.207Z,6.94
2023-10-20T04:01:57.338Z,6.89
2023-10-20T04:04:25.004Z,6.90
2023-10-20T04:06:52.633Z,6.90
2023-10-20T04:09:20.488Z,6.93
2023-10-20T04:11:49.583Z,6.92
2023-10-20T04:14:17.288Z,6.92
2023-10-20T04:16:46.646Z,6.90
2023-10-20T04:19:15.875Z,6.93
2023-10-20T04:21:45.418Z,6.90
2023-10-20T04:24:13.057Z,6.89
2023-10-20T04:26:43.060Z,6.91
2023-10-20T04:29:24.857Z,6.93
2023-10-20T04:32:10.437Z,6.94
2023-10-20T04:34:57.089Z,6.96
2023-10-20T04:37:42.462Z,6.98
2023-10-20T04:40:28.277Z,7.00
2023-10-20T04:43:15.652Z,7.00
2023-10-20T04:46:01.109Z,6.99
2023-10-20T04:48:42.688Z,7.01
2023-10-20T04:51:18.044Z,7.00
2023-10-20T04:53:53.627Z,6.96
2023-10-20T04:56:41.096Z,-141.22
2023-10-20T04:59:11.957Z,-141.22
2023-10-20T05:01:42.592Z,-141.22
2023-10-20T05:04:15.858Z,-141.22
2023-10-20T05:06:45.876Z,-141.22
2023-10-20T05:09:15.789Z,-141.22
2023-10-20T05:11:43.963Z,-141.22
2023-10-20T05:14:11.922Z,-141.22
2023-10-20T05:16:39.602Z,-141.22
2023-10-20T05:19:07.623Z,-141.22
2023-10-20T05:21:35.811Z,-141.22
2023-10-20T05:24:05.911Z,-141.22
2023-10-20T05:26:33.780Z,-141.22
2023-10-20T05:29:02.497Z,-141.22
2023-10-20T05:31:31.151Z,-141.22
2023-10-20T05:33:59.075Z,-141.22
2023-10-20T05:36:27.443Z,-141.22
2023-10-20T05:38:55.073Z,-141.22
2023-10-20T05:41:24.163Z,-141.22
2023-10-20T05:43:53.647Z,-141.22
2023-10-20T05:46:21.711Z,-141.22
2023-10-20T05:48:49.745Z,-141.22
2023-10-20T05:51:17.483Z,-141.22
2023-10-20T05:53:45.172Z,-141.22
2023-10-20T05:56:12.819Z,-141.22
2023-10-20T05:58:41.858Z,-141.22
2023-10-20T06:01:11.273Z,-141.22
2023-10-20T06:03:39.533Z,-141.22
2023-10-20T06:06:07.520Z,-141.22
2023-10-20T06:08:35.181Z,-141.22
2023-10-20T06:11:04.495Z,-141.22
2023-10-20T06:13:33.650Z,-141.22
2023-10-20T06:16:09.906Z,-141.22
2023-10-20T06:18:38.243Z,-141.22
2023-10-20T06:21:06.854Z,-141.22
2023-10-20T06:23:34.703Z,-141.22
2023-10-20T06:26:02.505Z,-141.22
2023-10-20T06:28:30.114Z,-141.22
2023-10-20T06:31:01.831Z,-141.22
2023-10-20T06:33:35.495Z,-141.22
2023-10-20T06:36:11.494Z,-141.22
2023-10-20T06:38:46.296Z,-141.22
2023-10-20T06:41:15.229Z,-141.22
2023-10-20T06:43:42.946Z,-141.22
2023-10-20T06:46:10.972Z,-141.22
2023-10-20T06:48:40.014Z,-141.22
2023-10-20T06:51:07.642Z,-141.22
2023-10-20T06:53:36.516Z,-141.22
2023-10-20T06:56:15.488Z,-141.22
2023-10-20T06:58:44.371Z,-141.22
2023-10-20T07:01:12.395Z,-141.22
2023-10-20T07:03:42.091Z,-141.22
2023-10-20T07:06:12.069Z,-141.22
2023-10-20T07:08:39.915Z,-141.22
2023-10-20T07:11:08.093Z,-141.22
2023-10-20T07:13:35.975Z,-141.22
2023-10-20T07:16:03.842Z,-141.22
2023-10-20T07:18:31.621Z,-141.22
2023-10-20T07:21:00.682Z,-141.22
2023-10-20T07:23:29.102Z,-141.22
2023-10-20T07:25:56.997Z,-141.22
2023-10-20T07:28:24.665Z,-141.22
2023-10-20T07:30:52.438Z,-141.22
2023-10-20T07:33:20.090Z,-141.22
2023-10-20T07:35:48.079Z,-141.22
2023-10-20T07:38:18.403Z,-141.22
2023-10-20T07:40:46.257Z,-141.22
2023-10-20T07:43:13.889Z,-141.22
2023-10-20T07:45:42.816Z,-141.22
2023-10-20T07:48:12.008Z,-141.22
2023-10-20T07:50:41.072Z,-141.22
2023-10-20T07:53:09.917Z,-141.22
2023-10-20T07:55:38.969Z,-141.22
2023-10-20T07:58:10.087Z,-141.22
2023-10-20T08:00:38.219Z,-141.22
2023-10-20T08:03:06.917Z,-141.22
2023-10-20T08:05:37.303Z,-141.22
2023-10-20T08:08:05.857Z,-141.22
2023-10-20T08:10:33.907Z,-141.22
2023-10-20T08:13:03.709Z,-141.22
2023-10-20T08:15:31.359Z,-141.22
2023-10-20T08:17:59.139Z,-141.22
2023-10-20T08:20:26.940Z,-141.22
2023-10-20T08:22:54.661Z,-141.22
2023-10-20T08:25:22.253Z,-141.22
2023-10-20T08:27:50.041Z,-141.22
2023-10-20T08:30:21.410Z,-141.22
2023-10-20T08:32:49.269Z,-141.22
2023-10-20T08:35:17.079Z,-141.22
2023-10-20T08:37:44.816Z,-141.22
2023-10-20T08:40:13.529Z,-141.22
2023-10-20T08:42:41.678Z,-141.22
2023-10-20T08:45:13.329Z,-141.22
2023-10-20T08:47:42.987Z,-141.22
2023-10-20T08:50:11.379Z,-141.22
2023-10-20T08:52:40.536Z,-141.22
2023-10-20T08:55:09.342Z,-141.22
2023-10-20T08:57:36.958Z,-141.22
2023-10-20T09:00:08.129Z,-141.22
2023-10-20T09:02:39.394Z,-141.22
2023-10-20T09:05:10.958Z,-141.22
2023-10-20T09:07:39.221Z,-141.22
2023-10-20T09:10:07.656Z,-141.22
2023-10-20T09:12:36.630Z,-141.22
2023-10-20T09:15:04.346Z,-141.22
2023-10-20T09:17:35.191Z,-141.22
2023-10-20T09:20:12.552Z,-141.22
2023-10-20T09:22:40.504Z,-141.22
2023-10-20T09:25:11.111Z,-141.22
2023-10-20T09:27:39.925Z,-141.22
2023-10-20T09:30:11.890Z,-141.22
2023-10-20T09:32:40.240Z,-141.22
2023-10-20T09:35:10.259Z,-141.22
2023-10-20T09:37:38.164Z,-141.22
2023-10-20T09:40:07.996Z,-141.22
2023-10-20T09:42:50.282Z,-141.22
2023-10-20T09:45:24.865Z,-141.22
2023-10-20T09:47:59.178Z,-141.22
2023-10-20T09:50:32.706Z,-141.22
2023-10-20T09:53:01.130Z,-141.22
2023-10-20T09:55:28.857Z,-141.22
2023-10-20T09:57:58.289Z,-141.22
2023-10-20T10:00:36.880Z,-141.22
2023-10-20T10:03:06.227Z,-141.22
2023-10-20T10:05:37.876Z,-141.22
2023-10-20T10:08:08.708Z,-141.22
2023-10-20T10:10:37.030Z,-141.22
2023-10-20T10:13:06.981Z,-141.22
2023-10-20T10:15:40.626Z,-141.22
2023-10-20T10:18:11.930Z,-141.22
2023-10-20T10:20:46.828Z,-141.22
2023-10-20T10:23:15.924Z,-141.22
2023-10-20T10:25:45.116Z,-141.22
2023-10-20T10:28:14.775Z,-141.22
2023-10-20T10:30:43.676Z,-141.22
2023-10-20T10:33:13.425Z,-141.22
2023-10-20T10:35:42.217Z,-141.22
2023-10-20T10:38:21.789Z,-141.22
2023-10-20T10:40:50.110Z,-141.22
2023-10-20T10:43:20.769Z,-141.22
2023-10-20T10:45:55.093Z,-141.22
2023-10-20T10:48:27.399Z,-141.22
2023-10-20T10:50:55.135Z,-141.22
2023-10-20T10:53:24.114Z,-141.22
2023-10-20T10:55:51.745Z,-141.22
2023-10-20T10:58:19.430Z,-141.22
2023-10-20T11:00:47.943Z,-141.22
2023-10-20T11:03:16.136Z,-141.22
2023-10-20T11:05:44.741Z,-141.22
2023-10-20T11:08:14.812Z,-141.22
2023-10-20T11:10:48.233Z,-141.22
2023-10-20T11:13:17.251Z,-141.22
2023-10-20T11:15:45.617Z,-141.22
2023-10-20T11:18:13.430Z,-141.22
2023-10-20T11:20:43.645Z,-141.22
2023-10-20T11:23:13.582Z,-141.22
2023-10-20T11:25:43.188Z,-141.22
2023-10-20T11:28:12.758Z,-141.22
2023-10-20T11:30:43.181Z,-141.22
2023-10-20T11:33:16.059Z,-141.22
2023-10-20T11:35:45.500Z,-141.22
2023-10-20T11:38:15.535Z,-141.22
2023-10-20T11:40:43.632Z,-141.22
2023-10-20T11:43:12.711Z,-141.22
2023-10-20T11:45:40.358Z,-141.22
2023-10-20T11:48:08.712Z,-141.22
2023-10-20T11:50:36.532Z,-141.22
2023-10-20T11:53:04.210Z,-141.22
2023-10-20T11:55:31.966Z,-141.22
2023-10-20T11:57:59.630Z,-141.22
2023-10-20T12:00:28.674Z,-141.22
2023-10-20T12:02:56.458Z,-141.22
2023-10-20T12:05:24.293Z,-141.22
2023-10-20T12:07:52.731Z,-141.22
2023-10-20T12:10:23.264Z,-141.22
2023-10-20T12:12:52.713Z,-141.22
2023-10-20T12:15:20.324Z,-141.22
2023-10-20T12:17:49.356Z,-141.22
2023-10-20T12:20:17.477Z,-141.22
2023-10-20T12:22:45.135Z,-141.22
2023-10-20T12:25:12.720Z,-141.22
2023-10-20T12:27:40.717Z,-141.22
2023-10-20T12:30:10.300Z,-141.22
2023-10-20T12:32:38.161Z,-141.22
2023-10-20T12:35:07.836Z,-141.22
2023-10-20T12:37:35.473Z,-141.22
2023-10-20T12:40:03.229Z,-141.22
2023-10-20T12:42:30.970Z,-141.22
2023-10-20T12:45:01.591Z,-141.22
2023-10-20T12:47:29.492Z,-141.22
2023-10-20T12:49:57.357Z,-141.22
2023-10-20T12:52:26.298Z,-141.22
2023-10-20T12:54:53.996Z,-141.22
2023-10-20T12:57:21.830Z,-141.22
2023-10-20T12:59:49.792Z,-141.22
2023-10-20T13:02:17.445Z,-141.22
2023-10-20T13:04:45.300Z,-141.22
2023-10-20T13:07:14.865Z,-141.22
2023-10-20T13:09:44.139Z,-141.22
2023-10-20T13:12:12.050Z,-141.22
2023-10-20T13:14:39.655Z,-141.22
2023-10-20T13:17:07.284Z,-141.22
2023-10-20T13:19:36.050Z,-141.22
2023-10-20T13:22:04.963Z,-141.22
2023-10-20T13:24:33.743Z,-141.22
2023-10-20T13:27:02.953Z,-141.22
2023-10-20T13:29:30.560Z,-141.22
2023-10-20T13:31:58.192Z,-141.22
2023-10-20T13:34:25.906Z,-141.22
2023-10-20T13:36:53.611Z,-141.22
2023-10-20T13:39:31.436Z,-141.22
2023-10-20T13:41:59.390Z,-141.22
2023-10-20T13:44:28.415Z,-141.22
2023-10-20T13:46:56.170Z,-141.22
2023-10-20T13:49:23.796Z,-141.22
2023-10-20T13:51:51.406Z,-141.22
2023-10-20T13:54:19.066Z,-141.22
2023-10-20T13:56:47.863Z,-141.22
2023-10-20T13:59:16.529Z,-141.22
2023-10-20T14:01:45.822Z,-141.22
2023-10-20T14:04:13.630Z,-141.22
2023-10-20T14:06:41.439Z,-141.22
2023-10-20T14:09:10.283Z,-141.22
2023-10-20T14:11:37.876Z,-141.22
2023-10-20T14:14:06.590Z,-141.22
2023-10-20T14:16:35.788Z,-141.22
2023-10-20T14:19:05.790Z,-141.22
2023-10-20T14:21:33.408Z,-141.22
2023-10-20T14:24:01.589Z,-141.22
2023-10-20T14:26:29.379Z,-141.22
2023-10-20T14:28:57.061Z,-141.22
2023-10-20T14:31:24.774Z,-141.22
2023-10-20T14:33:53.339Z,-141.22
2023-10-20T14:36:22.311Z,-141.22
2023-10-20T14:38:50.000Z,-141.22
2023-10-20T14:41:18.409Z,-141.22
2023-10-20T14:43:46.139Z,-141.22
2023-10-20T14:46:14.205Z,-141.22
2023-10-20T14:48:42.936Z,-141.22
2023-10-20T14:51:11.742Z,-141.22
2023-10-20T14:53:41.180Z,-141.22
2023-10-20T14:56:09.526Z,-141.22
2023-10-20T14:58:37.168Z,-141.22
2023-10-20T15:01:04.923Z,-141.22
2023-10-20T15:03:32.748Z,-141.22
2023-10-20T15:06:03.160Z,-141.22
2023-10-20T15:08:31.103Z,-141.22
2023-10-20T15:11:00.357Z,-141.22
2023-10-20T15:13:27.966Z,-141.22
2023-10-20T15:16:02.718Z,-141.22
2023-10-20T15:18:31.156Z,-141.22
2023-10-20T15:20:59.122Z,-141.22
2023-10-20T15:23:26.895Z,-141.22
2023-10-20T15:25:54.597Z,-141.22
2023-10-20T15:28:23.691Z,-141.22
2023-10-20T15:30:51.330Z,-141.22
2023-10-20T15:33:21.018Z,-141.22
2023-10-20T15:35:49.057Z,-141.22
2023-10-20T15:38:17.175Z,-141.22
2023-10-20T15:40:52.331Z,-141.22
2023-10-20T15:43:20.122Z,-141.22
2023-10-20T15:45:49.106Z,-141.22
2023-10-20T15:48:16.872Z,-141.22
2023-10-20T15:50:45.392Z,-141.22
2023-10-20T15:53:13.125Z,-141.22
2023-10-20T15:55:41.962Z,-141.22
2023-10-20T15:58:09.885Z,-141.22
2023-10-20T16:00:38.024Z,-141.22
2023-10-20T16:03:07.542Z,-141.22
2023-10-20T16:05:35.284Z,-141.22
2023-10-20T16:08:02.896Z,-141.22
2023-10-20T16:10:31.698Z,-141.22
2023-10-20T16:12:59.362Z,-141.22
2023-10-20T16:15:27.242Z,-141.22
2023-10-20T16:17:56.011Z,-141.22
2023-10-20T16:20:25.310Z,-141.22
2023-10-20T16:22:52.999Z,-141.22
2023-10-20T16:25:22.065Z,-141.22
2023-10-20T16:27:50.014Z,-141.22
2023-10-20T16:30:18.100Z,-141.22
2023-10-20T16:32:45.806Z,-141.22
2023-10-20T16:35:13.553Z,-141.22
2023-10-20T16:37:42.652Z,-141.22
2023-10-20T16:40:13.321Z,-141.22
2023-10-20T16:42:40.950Z,-141.22
2023-10-20T16:45:11.054Z,-141.22
2023-10-20T16:47:39.128Z,-141.22
2023-10-20T16:50:07.964Z,-141.22
2023-10-20T16:52:35.859Z,-141.22
2023-10-20T16:55:05.322Z,-141.22
2023-10-20T16:57:33.140Z,-141.22
2023-10-20T17:00:00.879Z,-141.22
2023-10-20T17:02:28.613Z,-141.22
2023-10-20T17:04:56.274Z,-141.22
2023-10-20T17:07:23.908Z,-141.22
2023-10-20T17:09:51.521Z,-141.22
2023-10-20T17:12:21.449Z,-141.22
2023-10-20T17:14:49.323Z,-141.22
2023-10-20T17:17:17.018Z,-141.22
2023-10-20T17:19:44.632Z,-141.22
2023-10-20T17:22:12.332Z,-141.22
2023-10-20T17:24:39.969Z,-141.22
2023-10-20T17:27:07.990Z,-141.22
2023-10-20T17:29:37.194Z,-141.22
2023-10-20T17:32:05.587Z,-141.22
2023-10-20T17:34:33.180Z,-141.22
2023-10-20T17:37:00.840Z,-141.22
2023-10-20T17:39:28.450Z,-141.22
2023-10-20T17:41:56.178Z,-141.22
2023-10-20T17:44:23.864Z,-141.22
2023-10-20T17:46:52.908Z,-141.22
2023-10-20T17:49:20.614Z,-141.22
2023-10-20T17:51:48.276Z,-141.22
2023-10-20T17:54:15.867Z,-141.22
2023-10-20T17:56:44.818Z,-141.22
2023-10-20T17:59:12.623Z,-141.22
2023-10-20T18:01:40.301Z,-141.22
2023-10-20T18:04:09.588Z,-141.22
2023-10-20T18:06:37.413Z,-141.22
2023-10-20T18:09:05.907Z,-141.22
2023-10-20T18:11:34.050Z,-141.22
2023-10-20T18:14:01.710Z,-141.22
2023-10-20T18:16:30.624Z,-141.22
2023-10-20T18:18:58.264Z,-141.22
2023-10-20T18:21:27.418Z,-141.22
2023-10-20T18:23:58.516Z,-141.22
2023-10-20T18:26:26.353Z,-141.22
2023-10-20T18:28:53.984Z,-141.22
2023-10-20T18:31:22.691Z,-141.22
2023-10-20T18:33:52.355Z,-141.22
2023-10-20T18:36:20.135Z,-141.22
2023-10-20T18:38:49.095Z,-141.22
2023-10-20T18:41:17.064Z,-141.22
2023-10-20T18:43:44.953Z,-141.22
2023-10-20T18:46:12.756Z,-141.22
2023-10-20T18:48:40.939Z,-141.22
2023-10-20T18:51:10.123Z,-141.22
2023-10-20T18:53:38.172Z,-141.22
2023-10-20T18:56:08.506Z,-141.22
2023-10-20T18:58:37.516Z,-141.22
2023-10-20T19:01:05.233Z,-141.22
2023-10-20T19:03:34.886Z,-141.22
2023-10-20T19:06:04.162Z,-141.22
2023-10-20T19:08:32.052Z,-141.22
2023-10-20T19:11:05.555Z,-141.22
2023-10-20T19:13:34.974Z,-141.22
2023-10-20T19:16:04.476Z,-141.22
2023-10-20T19:18:32.428Z,-141.22
2023-10-20T19:21:00.315Z,-141.22
2023-10-20T19:23:28.679Z,-141.22
2023-10-20T19:26:00.922Z,-141.22
2023-10-20T19:28:28.942Z,-141.22
2023-10-20T19:31:02.143Z,-141.22
2023-10-20T19:33:31.849Z,-141.22
2023-10-20T19:36:00.546Z,-141.22
2023-10-20T19:38:28.261Z,-141.22
2023-10-20T19:40:56.154Z,-141.22
2023-10-20T19:43:23.843Z,-141.22
2023-10-20T19:45:51.530Z,-141.22
2023-10-20T19:48:20.587Z,-141.22
2023-10-20T19:50:48.432Z,-141.22
2023-10-20T19:53:16.114Z,-141.22
2023-10-20T19:55:44.194Z,-141.22
2023-10-20T19:58:12.139Z,-141.22
2023-10-20T20:00:40.557Z,-141.22
2023-10-20T20:03:08.824Z,-141.22
2023-10-20T20:05:38.084Z,-141.22
2023-10-20T20:08:05.915Z,-141.22
2023-10-20T20:10:33.560Z,-141.22
2023-10-20T20:13:01.211Z,-141.22
2023-10-20T20:15:28.893Z,-141.22
2023-10-20T20:17:57.132Z,-141.22
2023-10-20T20:20:24.897Z,-141.22
2023-10-20T20:22:53.874Z,-141.22
2023-10-20T20:25:21.479Z,-141.22
2023-10-20T20:27:49.287Z,-141.22
2023-10-20T20:30:17.250Z,-141.22
2023-10-20T20:32:45.388Z,-141.22
2023-10-20T20:35:13.079Z,-141.22
2023-10-20T20:37:40.765Z,-141.22
2023-10-20T20:40:10.738Z,-141.22
2023-10-20T20:42:38.358Z,-141.22
2023-10-20T20:45:07.174Z,-141.22
2023-10-20T20:47:34.927Z,-141.22
2023-10-20T20:50:02.704Z,-141.22
2023-10-20T20:52:30.368Z,-141.22
2023-10-20T20:54:57.996Z,-141.22
2023-10-20T20:57:27.256Z,-141.22
2023-10-20T20:59:54.883Z,-141.22
2023-10-20T21:02:22.529Z,-141.22
2023-10-20T21:04:50.216Z,-141.22
2023-10-20T21:07:17.876Z,-141.22
2023-10-20T21:09:45.702Z,-141.22
2023-10-20T21:12:13.469Z,-141.22
2023-10-20T21:14:42.538Z,-141.22
2023-10-20T21:17:11.494Z,-141.22
2023-10-20T21:19:39.536Z,-141.22
2023-10-20T21:22:07.282Z,-141.22
2023-10-20T21:24:34.901Z,-141.22
2023-10-20T21:27:02.612Z,-141.22
2023-10-20T21:29:30.224Z,-141.22
2023-10-20T21:31:59.243Z,-141.22
2023-10-20T21:34:26.912Z,-141.22
2023-10-20T21:36:55.418Z,-141.22
2023-10-20T21:39:23.248Z,-141.22
2023-10-20T21:41:50.882Z,-141.22
2023-10-20T21:44:18.532Z,-141.22
2023-10-20T21:46:46.192Z,-141.22
2023-10-20T21:49:15.398Z,-141.22
2023-10-20T21:51:42.989Z,-141.22
2023-10-20T21:54:10.619Z,-141.22
2023-10-20T21:56:38.321Z,-141.22
2023-10-20T21:59:06.028Z,-141.22
2023-10-20T22:01:33.961Z,-141.22
2023-10-20T22:04:01.719Z,-141.22
2023-10-20T22:06:30.982Z,-141.22
2023-10-20T22:08:58.651Z,-141.22
2023-10-20T22:11:26.391Z,-141.22
2023-10-20T22:13:53.953Z,-141.22
2023-10-20T22:16:21.705Z,-141.22
2023-10-20T22:18:50.000Z,-141.22
2023-10-20T22:21:17.848Z,-141.22
2023-10-20T22:23:46.920Z,-141.22
2023-10-20T22:26:14.620Z,-141.22
2023-10-20T22:28:42.476Z,-141.22
2023-10-20T22:31:12.127Z,-141.22
2023-10-20T22:33:41.305Z,-141.22
2023-10-20T22:36:09.047Z,-141.22
2023-10-20T22:38:36.739Z,-141.22
2023-10-20T22:41:05.696Z,-141.22
2023-10-20T22:43:33.435Z,-141.22
2023-10-20T22:46:02.845Z,-141.22
2023-10-20T22:48:30.565Z,-141.22
2023-10-20T22:50:58.238Z,-141.22
2023-10-20T22:53:26.023Z,-141.22
2023-10-20T22:55:53.721Z,-141.22
2023-10-20T22:58:22.672Z,-141.22
2023-10-20T23:00:50.335Z,-141.22
2023-10-20T23:03:18.105Z,-141.22
2023-10-20T23:05:45.784Z,-141.22
2023-10-20T23:08:13.488Z,-141.22
2023-10-20T23:10:41.246Z,-141.22
2023-10-20T23:13:09.533Z,-141.22
2023-10-20T23:15:42.638Z,-141.22
2023-10-20T23:18:10.796Z,-141.22
2023-10-20T23:20:38.942Z,-141.22
2023-10-20T23:23:06.672Z,-141.22
2023-10-20T23:25:35.817Z,-141.22
2023-10-20T23:28:03.886Z,-141.22
2023-10-20T23:30:31.485Z,-141.22
2023-10-20T23:33:01.031Z,-141.22
2023-10-20T23:35:29.006Z,-141.22
2023-10-20T23:37:56.695Z,-141.22
2023-10-20T23:40:24.552Z,-141.22
2023-10-20T23:42:54.031Z,-141.22
2023-10-20T23:45:21.790Z,-141.22
2023-10-20T23:47:49.491Z,-141.22
2023-10-20T23:50:18.570Z,-141.22
2023-10-20T23:52:46.157Z,-141.22
2023-10-20T23:55:14.089Z,-141.22
2023-10-20T23:57:41.809Z,-141.22
